Time;durP1;ratioP1;P1;durP2;ratioP2;P2;SDS_P1;SDS_P2;PMS_P1;PMS_P2;Temp;Humidity;BMP_temperature;BMP_pressure;BME280_temperature;BME280_humidity;BME280_pressure;Samples;Min_cycle;Max_cycle;Signal;HPM_P1;HPM_P2
2023/05/24 00:00:54;;;;;;;5.90;3.72;;;15.00;82.50;;;;;;6218229;28;20046;-81
2023/05/24 00:03:59;;;;;;;6.10;4.35;;;15.00;82.60;;;;;;6219896;28;20046;-81
2023/05/24 00:07:02;;;;;;;13.45;4.28;;;14.90;82.60;;;;;;6218937;28;20038;-79
2023/05/24 00:10:04;;;;;;;8.73;3.63;;;14.90;82.70;;;;;;6219137;28;20065;-80
2023/05/24 00:13:08;;;;;;;8.32;3.65;;;14.90;82.80;;;;;;6215809;28;20058;-79
2023/05/24 00:16:10;;;;;;;7.82;3.72;;;14.90;83.00;;;;;;6216276;28;20041;-81
2023/05/24 00:19:17;;;;;;;6.30;3.78;;;14.90;82.90;;;;;;6218921;28;20049;-80
2023/05/24 00:22:19;;;;;;;12.77;4.00;;;14.80;82.90;;;;;;6218936;28;20141;-81
2023/05/24 00:25:21;;;;;;;7.78;3.83;;;14.70;83.00;;;;;;6217914;28;20362;-80
2023/05/24 00:28:23;;;;;;;8.77;3.88;;;14.60;83.10;;;;;;6218664;28;20053;-80
2023/05/24 00:31:25;;;;;;;10.82;4.72;;;14.50;83.30;;;;;;6219496;28;20057;-79
2023/05/24 00:34:28;;;;;;;7.88;4.50;;;14.50;83.60;;;;;;6208710;28;20076;-80
2023/05/24 00:37:29;;;;;;;7.80;3.90;;;14.40;83.80;;;;;;6213388;28;20057;-80
2023/05/24 00:40:31;;;;;;;10.07;3.53;;;14.30;84.10;;;;;;6216286;28;20493;-79
2023/05/24 00:43:33;;;;;;;11.13;4.40;;;14.20;84.30;;;;;;6218456;28;20468;-81
2023/05/24 00:49:52;;;;;;;5.53;4.43;;;14.10;85.00;;;;;;6234002;28;20176;-79
2023/05/24 00:52:54;;;;;;;12.73;4.50;;;14.10;85.30;;;;;;6237410;28;22831;-80
2023/05/24 00:55:56;;;;;;;12.82;4.15;;;14.00;85.50;;;;;;6209163;28;20408;-81
2023/05/24 00:58:58;;;;;;;9.23;4.18;;;14.00;85.90;;;;;;6210923;28;20061;-79
2023/05/24 01:02:01;;;;;;;6.07;3.65;;;13.80;86.10;;;;;;6209026;28;20065;-79
2023/05/24 01:05:05;;;;;;;9.45;4.43;;;13.80;86.40;;;;;;6208712;28;20505;-80
2023/05/24 01:08:14;;;;;;;7.05;3.78;;;13.70;86.70;;;;;;6209873;28;20050;-81
2023/05/24 01:11:26;;;;;;;7.82;4.70;;;13.60;87.00;;;;;;6211672;28;20513;-81
2023/05/24 01:14:35;;;;;;;26.52;4.90;;;13.50;87.30;;;;;;6207096;28;20534;-80
2023/05/24 01:17:45;;;;;;;10.02;4.38;;;13.50;87.60;;;;;;6207535;28;20121;-79
2023/05/24 01:20:58;;;;;;;10.30;4.55;;;13.50;87.90;;;;;;6205096;28;20049;-80
2023/05/24 01:24:13;;;;;;;8.18;4.25;;;13.40;88.20;;;;;;6204827;28;20049;-80
2023/05/24 01:27:18;;;;;;;9.82;5.05;;;13.40;88.40;;;;;;6207560;28;20053;-79
2023/05/24 01:30:20;;;;;;;9.80;4.00;;;13.40;88.70;;;;;;6203676;28;20070;-80
2023/05/24 01:33:22;;;;;;;6.45;4.05;;;13.30;88.90;;;;;;6201571;28;20042;-80
2023/05/24 01:36:23;;;;;;;9.45;4.63;;;13.30;89.20;;;;;;6205586;28;20050;-79
2023/05/24 01:39:29;;;;;;;11.15;4.35;;;13.30;89.60;;;;;;6204827;28;20042;-79
2023/05/24 01:42:39;;;;;;;8.20;4.40;;;13.30;89.90;;;;;;6204485;28;20100;-80
2023/05/24 01:45:50;;;;;;;8.70;4.72;;;13.30;90.00;;;;;;6209759;28;20045;-79
2023/05/24 01:48:59;;;;;;;14.65;5.72;;;13.30;90.10;;;;;;6205438;28;20050;-80
2023/05/24 01:52:06;;;;;;;8.25;5.55;;;13.30;90.10;;;;;;6205392;28;20054;-80
2023/05/24 01:55:09;;;;;;;11.25;4.95;;;13.40;90.20;;;;;;6203606;28;20057;-80
2023/05/24 01:58:14;;;;;;;8.32;4.70;;;13.40;90.30;;;;;;6196841;28;20521;-80
2023/05/24 02:01:16;;;;;;;12.00;5.30;;;13.40;90.40;;;;;;6196039;28;20046;-80
2023/05/24 02:04:18;;;;;;;5.38;4.22;;;13.30;90.40;;;;;;6211433;28;20056;-81
2023/05/24 02:07:20;;;;;;;11.95;4.60;;;13.30;90.50;;;;;;6203352;28;20050;-81
2023/05/24 02:10:22;;;;;;;7.25;4.75;;;13.30;90.60;;;;;;6201651;28;20050;-81
2023/05/24 02:13:25;;;;;;;15.73;5.97;;;13.30;90.70;;;;;;6200972;28;20046;-80
2023/05/24 02:16:29;;;;;;;8.10;4.25;;;13.30;90.80;;;;;;6199819;28;20054;-80
2023/05/24 02:19:33;;;;;;;7.28;4.47;;;13.20;90.80;;;;;;6199387;28;20140;-80
2023/05/24 02:22:35;;;;;;;14.90;5.28;;;13.30;90.90;;;;;;6204752;28;20053;-81
2023/05/24 02:25:36;;;;;;;8.98;4.18;;;13.20;90.80;;;;;;6214697;28;20535;-79
2023/05/24 02:28:40;;;;;;;8.82;4.40;;;13.20;90.70;;;;;;6244027;28;20050;-79
2023/05/24 02:31:41;;;;;;;10.65;4.43;;;13.20;90.70;;;;;;6246301;28;20489;-80
2023/05/24 02:34:43;;;;;;;7.75;4.28;;;13.20;90.70;;;;;;6231618;28;20082;-81
2023/05/24 02:37:45;;;;;;;11.57;5.88;;;13.10;90.60;;;;;;6229787;28;20049;-81
2023/05/24 02:40:47;;;;;;;10.90;5.28;;;13.20;90.60;;;;;;6225384;28;20038;-81
2023/05/24 02:43:50;;;;;;;8.75;4.60;;;13.10;90.50;;;;;;6204356;28;20046;-81
2023/05/24 02:46:52;;;;;;;16.20;5.47;;;13.10;90.50;;;;;;6205191;28;20054;-81
2023/05/24 02:49:53;;;;;;;7.80;4.43;;;13.10;90.40;;;;;;6204135;28;20050;-81
2023/05/24 02:52:55;;;;;;;8.18;4.32;;;13.00;90.40;;;;;;6204289;28;20513;-80
2023/05/24 02:55:57;;;;;;;13.65;4.78;;;13.00;90.30;;;;;;6205384;28;20166;-80
2023/05/24 02:59:00;;;;;;;12.55;4.30;;;13.00;90.30;;;;;;6206094;28;20054;-81
2023/05/24 03:02:01;;;;;;;14.68;8.48;;;13.00;90.30;;;;;;6205189;28;20053;-81
2023/05/24 03:05:04;;;;;;;14.10;5.25;;;12.90;90.20;;;;;;6204506;28;20042;-81
2023/05/24 03:08:06;;;;;;;9.48;4.60;;;12.90;90.20;;;;;;6204148;28;20046;-81
2023/05/24 03:11:08;;;;;;;11.88;4.40;;;12.90;90.20;;;;;;6205601;28;20098;-81
2023/05/24 03:14:11;;;;;;;11.75;3.97;;;12.80;90.10;;;;;;6214790;28;20054;-81
2023/05/24 03:17:13;;;;;;;8.95;4.85;;;12.80;90.20;;;;;;6205060;28;20053;-81
2023/05/24 03:20:16;;;;;;;12.77;4.97;;;12.80;90.30;;;;;;6204987;28;20038;-81
2023/05/24 03:23:18;;;;;;;7.57;3.88;;;12.70;90.20;;;;;;6204349;28;20057;-80
2023/05/24 03:26:20;;;;;;;6.38;3.95;;;12.70;90.20;;;;;;6203901;28;20062;-81
2023/05/24 03:29:23;;;;;;;12.27;4.43;;;12.70;90.20;;;;;;6203941;28;20050;-81
2023/05/24 03:32:25;;;;;;;12.13;4.90;;;12.70;90.30;;;;;;6204616;28;20054;-81
2023/05/24 03:35:27;;;;;;;10.45;4.55;;;12.70;90.30;;;;;;6206099;28;20299;-80
2023/05/24 03:38:28;;;;;;;12.40;4.55;;;12.70;90.30;;;;;;6206628;28;20133;-80
2023/05/24 03:41:30;;;;;;;9.00;4.40;;;12.70;90.30;;;;;;6205406;28;20132;-81
2023/05/24 03:44:34;;;;;;;9.68;4.32;;;12.60;90.30;;;;;;6205433;28;20054;-80
2023/05/24 03:47:36;;;;;;;8.25;5.03;;;12.60;90.40;;;;;;6204901;28;20054;-81
2023/05/24 03:50:37;;;;;;;9.38;4.53;;;12.60;90.40;;;;;;6204998;28;20046;-81
2023/05/24 03:53:39;;;;;;;10.40;4.65;;;12.60;90.40;;;;;;6201936;28;20042;-78
2023/05/24 03:56:41;;;;;;;11.63;4.63;;;12.60;90.40;;;;;;6200090;28;20053;-79
2023/05/24 03:59:44;;;;;;;6.07;3.95;;;12.60;90.40;;;;;;6199145;28;20069;-79
2023/05/24 04:02:46;;;;;;;8.95;4.07;;;12.60;90.70;;;;;;6200480;28;20050;-78
2023/05/24 04:05:48;;;;;;;13.55;4.15;;;12.50;90.50;;;;;;6198999;28;20085;-79
2023/05/24 04:08:51;;;;;;;9.90;3.97;;;12.50;90.50;;;;;;6199373;28;20042;-79
2023/05/24 04:11:53;;;;;;;12.23;4.85;;;12.50;90.50;;;;;;6199441;28;20049;-79
2023/05/24 04:14:56;;;;;;;9.27;3.97;;;12.50;90.50;;;;;;6200180;28;20057;-79
2023/05/24 04:17:57;;;;;;;9.00;3.33;;;12.50;90.50;;;;;;6198208;28;20420;-80
2023/05/24 04:20:59;;;;;;;11.25;5.28;;;12.50;90.50;;;;;;6200882;28;20501;-78
2023/05/24 04:24:02;;;;;;;7.97;3.92;;;12.50;90.40;;;;;;6234554;28;20042;-81
2023/05/24 04:27:04;;;;;;;16.13;5.00;;;12.50;90.50;;;;;;6229153;28;20180;-81
2023/05/24 04:30:09;;;;;;;8.93;3.92;;;12.50;90.50;;;;;;6227385;28;20046;-79
2023/05/24 04:33:10;;;;;;;13.43;4.50;;;12.50;90.60;;;;;;6225194;28;20049;-81
2023/05/24 04:36:12;;;;;;;8.95;4.88;;;12.50;90.70;;;;;;6222406;28;20042;-79
2023/05/24 04:39:14;;;;;;;18.05;5.22;;;12.50;90.60;;;;;;6222834;28;20046;-80
2023/05/24 04:42:16;;;;;;;9.27;4.75;;;12.50;90.70;;;;;;6204177;28;20053;-80
2023/05/24 04:45:19;;;;;;;13.30;3.92;;;12.60;90.70;;;;;;6198054;28;20046;-81
2023/05/24 04:48:23;;;;;;;13.95;4.55;;;12.60;90.60;;;;;;6197943;28;20070;-80
2023/05/24 04:51:24;;;;;;;16.08;4.40;;;12.60;90.70;;;;;;6198399;28;20141;-80
2023/05/24 04:54:26;;;;;;;12.73;4.60;;;12.60;90.70;;;;;;6197427;28;20050;-80
2023/05/24 04:57:28;;;;;;;9.73;4.22;;;12.50;90.70;;;;;;6197092;28;20046;-79
2023/05/24 05:00:31;;;;;;;15.35;4.63;;;12.60;90.70;;;;;;6197754;28;20555;-79
2023/05/24 05:03:33;;;;;;;13.35;5.32;;;12.60;90.80;;;;;;6198037;28;20108;-79
2023/05/24 05:06:37;;;;;;;16.05;4.07;;;12.60;90.70;;;;;;6198458;28;20101;-79
2023/05/24 05:09:39;;;;;;;8.73;3.22;;;12.60;90.70;;;;;;6197133;28;20526;-79
2023/05/24 05:12:40;;;;;;;11.95;4.53;;;12.60;90.70;;;;;;6197307;28;20184;-79
2023/05/24 05:15:44;;;;;;;17.90;4.63;;;12.50;90.60;;;;;;6197157;28;20061;-79
2023/05/24 05:18:45;;;;;;;10.80;4.57;;;12.50;90.70;;;;;;6203057;28;20081;-77
2023/05/24 05:21:47;;;;;;;10.48;4.55;;;12.50;90.60;;;;;;6223371;28;20053;-78
2023/05/24 05:24:48;;;;;;;11.40;4.43;;;12.40;90.60;;;;;;6201850;28;20046;-81
2023/05/24 05:27:50;;;;;;;9.32;4.13;;;12.50;90.70;;;;;;6199141;28;20042;-79
2023/05/24 05:30:55;;;;;;;11.18;4.20;;;12.50;90.70;;;;;;6202092;28;20050;-78
2023/05/24 05:33:57;;;;;;;14.27;3.80;;;12.50;90.70;;;;;;6205959;28;20050;-81
2023/05/24 05:36:58;;;;;;;14.05;5.00;;;12.50;90.70;;;;;;6202092;28;20098;-80
2023/05/24 05:40:00;;;;;;;7.40;3.67;;;12.60;90.70;;;;;;6201284;28;20050;-80
2023/05/24 05:43:03;;;;;;;13.60;4.15;;;12.60;90.60;;;;;;6202201;28;20051;-78
2023/05/24 05:46:06;;;;;;;6.63;4.25;;;12.70;90.50;;;;;;6201381;28;20053;-80
2023/05/24 05:49:08;;;;;;;10.75;4.53;;;12.70;90.50;;;;;;6203767;28;20057;-77
2023/05/24 05:52:10;;;;;;;8.90;5.07;;;12.70;90.50;;;;;;6212050;28;20054;-79
2023/05/24 05:55:12;;;;;;;13.40;4.70;;;12.80;90.50;;;;;;6208481;28;20135;-80
2023/05/24 05:58:13;;;;;;;15.52;7.03;;;12.80;90.40;;;;;;6206123;28;20042;-80
2023/05/24 06:01:16;;;;;;;10.90;3.70;;;12.90;90.60;;;;;;6206877;28;20046;-80
2023/05/24 06:04:18;;;;;;;7.95;3.42;;;13.00;90.20;;;;;;6206889;28;20046;-80
2023/05/24 06:07:20;;;;;;;12.00;4.40;;;13.00;90.30;;;;;;6206499;28;20057;-80
2023/05/24 06:10:21;;;;;;;14.38;5.65;;;13.20;90.30;;;;;;6205182;28;20054;-79
2023/05/24 06:13:25;;;;;;;11.93;3.78;;;13.50;90.20;;;;;;6205964;28;20049;-79
2023/05/24 06:16:28;;;;;;;10.48;4.90;;;13.80;90.20;;;;;;6209854;28;20493;-80
2023/05/24 06:19:30;;;;;;;8.05;4.03;;;14.20;89.20;;;;;;6229835;28;20069;-80
2023/05/24 06:22:35;;;;;;;11.60;4.97;;;14.30;88.40;;;;;;6229428;28;20056;-80
2023/05/24 06:25:37;;;;;;;18.05;4.90;;;14.30;88.40;;;;;;6230042;28;20177;-79
2023/05/24 06:28:39;;;;;;;12.90;4.57;;;14.50;88.50;;;;;;6227927;28;20516;-81
2023/05/24 06:31:42;;;;;;;8.60;4.50;;;14.60;87.80;;;;;;6225872;28;20132;-79
2023/05/24 06:34:44;;;;;;;12.32;4.82;;;14.60;86.90;;;;;;6228709;28;20054;-79
2023/05/24 06:37:46;;;;;;;7.90;4.55;;;14.50;86.60;;;;;;6227716;28;20052;-80
2023/05/24 06:40:47;;;;;;;17.42;4.95;;;14.40;86.10;;;;;;6234130;28;20523;-79
2023/05/24 06:43:49;;;;;;;12.70;4.97;;;14.40;86.10;;;;;;6229632;28;20045;-80
2023/05/24 06:46:52;;;;;;;17.25;4.10;;;14.30;86.30;;;;;;6230863;28;20428;-79
2023/05/24 06:49:54;;;;;;;14.57;6.20;;;14.40;86.30;;;;;;6197501;28;20656;-78
2023/05/24 06:52:55;;;;;;;12.57;4.70;;;14.50;85.60;;;;;;6217583;28;20057;-79
2023/05/24 06:55:57;;;;;;;8.18;3.88;;;14.60;85.80;;;;;;6231161;28;20049;-78
2023/05/24 06:58:59;;;;;;;9.60;4.60;;;14.60;85.40;;;;;;6227447;28;20053;-80
2023/05/24 07:02:03;;;;;;;17.60;4.50;;;14.60;85.20;;;;;;6252067;28;20050;-80
2023/05/24 07:05:07;;;;;;;11.40;4.22;;;14.70;85.10;;;;;;6241890;28;20046;-79
2023/05/24 07:08:08;;;;;;;12.48;4.22;;;14.80;85.20;;;;;;6220252;28;20053;-81
2023/05/24 07:11:10;;;;;;;10.88;4.25;;;14.90;84.80;;;;;;6230743;28;20049;-80
2023/05/24 07:14:12;;;;;;;11.05;4.75;;;15.00;84.20;;;;;;6229045;28;20057;-79
2023/05/24 07:17:15;;;;;;;10.93;4.20;;;15.10;83.90;;;;;;6229010;28;20042;-81
2023/05/24 07:20:20;;;;;;;11.00;3.88;;;15.30;83.10;;;;;;6227898;28;20038;-80
2023/05/24 07:23:22;;;;;;;11.98;4.05;;;15.20;82.80;;;;;;6228685;28;20126;-81
2023/05/24 07:26:23;;;;;;;11.25;5.13;;;15.20;83.20;;;;;;6228130;28;20535;-80
2023/05/24 07:29:25;;;;;;;18.30;3.88;;;15.30;83.20;;;;;;6227250;28;20554;-80
2023/05/24 07:32:29;;;;;;;10.38;3.85;;;15.40;83.00;;;;;;6228301;28;20042;-82
2023/05/24 07:35:31;;;;;;;11.27;3.53;;;15.30;82.10;;;;;;6220231;28;20073;-79
2023/05/24 07:38:33;;;;;;;9.75;3.53;;;15.20;81.80;;;;;;6216776;28;20046;-77
2023/05/24 07:41:35;;;;;;;13.23;6.85;;;15.00;81.90;;;;;;6214376;28;20049;-79
2023/05/24 07:44:37;;;;;;;14.07;6.40;;;14.90;82.00;;;;;;6216120;28;20050;-78
2023/05/24 07:47:40;;;;;;;13.88;4.30;;;15.00;81.90;;;;;;6213797;28;20049;-78
2023/05/24 07:50:47;;;;;;;9.63;3.53;;;14.90;82.10;;;;;;6218506;28;20050;-80
2023/05/24 07:53:48;;;;;;;9.52;3.75;;;14.80;81.80;;;;;;6218252;28;20050;-80
2023/05/24 07:56:50;;;;;;;13.27;4.38;;;15.00;81.90;;;;;;6214735;28;20053;-80
2023/05/24 07:59:52;;;;;;;12.15;3.45;;;15.40;81.70;;;;;;6212489;28;20108;-79
2023/05/24 08:02:56;;;;;;;11.63;4.38;;;15.80;80.60;;;;;;6215580;28;20049;-81
2023/05/24 08:05:57;;;;;;;12.05;4.32;;;16.00;80.00;;;;;;6208348;28;20061;-78
2023/05/24 08:08:59;;;;;;;5.40;3.38;;;16.00;78.60;;;;;;6219441;28;20041;-81
2023/05/24 08:12:01;;;;;;;13.35;4.38;;;16.20;78.90;;;;;;6225564;28;20050;-81
2023/05/24 08:15:03;;;;;;;10.02;3.38;;;16.40;77.70;;;;;;6226738;28;20050;-80
2023/05/24 08:18:06;;;;;;;11.02;3.75;;;16.60;76.80;;;;;;6224499;28;20412;-81
2023/05/24 08:21:08;;;;;;;11.75;3.63;;;16.90;76.30;;;;;;6224077;28;20057;-80
2023/05/24 08:24:10;;;;;;;17.52;5.63;;;17.10;75.50;;;;;;6226092;28;20052;-77
2023/05/24 08:27:12;;;;;;;9.57;3.40;;;17.10;74.50;;;;;;6234740;28;20171;-80
2023/05/24 08:30:14;;;;;;;14.07;5.00;;;17.20;74.20;;;;;;6206716;28;20064;-81
2023/05/24 08:33:17;;;;;;;6.95;3.10;;;17.20;73.20;;;;;;6208027;28;20057;-80
2023/05/24 08:36:19;;;;;;;8.60;3.10;;;17.30;72.60;;;;;;6216343;28;20049;-77
2023/05/24 08:39:21;;;;;;;13.13;3.15;;;17.20;72.10;;;;;;6245408;28;20045;-81
2023/05/24 08:42:24;;;;;;;11.38;3.30;;;17.30;72.00;;;;;;6220362;28;20045;-80
2023/05/24 08:45:28;;;;;;;9.38;3.22;;;17.40;71.60;;;;;;6221631;28;20042;-80
2023/05/24 08:48:32;;;;;;;9.68;3.40;;;17.40;70.80;;;;;;6233350;28;20060;-81
2023/05/24 08:51:33;;;;;;;10.20;2.72;;;17.70;70.60;;;;;;6249714;28;20420;-76
2023/05/24 08:54:36;;;;;;;13.82;3.63;;;18.20;69.90;;;;;;6248387;28;20607;-77
2023/05/24 08:57:39;;;;;;;7.10;2.65;;;19.00;69.30;;;;;;6237832;28;20060;-80
2023/05/24 09:00:41;;;;;;;10.63;3.35;;;20.30;67.80;;;;;;6239718;28;20041;-80
2023/05/24 09:03:46;;;;;;;5.32;2.83;;;21.40;65.50;;;;;;6228865;28;20048;-80
2023/05/24 09:06:48;;;;;;;6.80;3.22;;;22.20;62.60;;;;;;6228385;28;20053;-78
2023/05/24 09:09:57;;;;;;;8.13;2.70;;;22.30;61.30;;;;;;6234185;28;20060;-79
2023/05/24 09:13:02;;;;;;;7.28;2.42;;;22.00;59.90;;;;;;6246625;28;20045;-80
2023/05/24 09:16:06;;;;;;;14.75;2.97;;;21.50;59.20;;;;;;6253448;28;20054;-78
2023/05/24 09:19:09;;;;;;;8.63;2.35;;;21.20;59.60;;;;;;6242288;28;20041;-81
2023/05/24 09:22:13;;;;;;;11.27;3.42;;;20.90;59.80;;;;;;6243346;28;20046;-80
2023/05/24 09:25:14;;;;;;;8.45;3.30;;;20.70;60.00;;;;;;6242428;28;20401;-78
2023/05/24 09:28:18;;;;;;;12.93;3.60;;;20.60;60.10;;;;;;6241338;28;20062;-80
2023/05/24 09:31:19;;;;;;;7.50;2.33;;;20.50;60.10;;;;;;6249229;28;20057;-80
2023/05/24 09:34:22;;;;;;;9.88;2.65;;;20.40;60.20;;;;;;6252255;28;20042;-79
2023/05/24 09:37:27;;;;;;;10.15;2.80;;;20.90;60.00;;;;;;6249373;28;20049;-78
2023/05/24 09:40:29;;;;;;;5.63;3.00;;;21.20;58.10;;;;;;6249770;28;20063;-81
2023/05/24 09:43:33;;;;;;;10.82;3.80;;;21.20;58.10;;;;;;6249916;28;20053;-81
2023/05/24 09:46:37;;;;;;;10.77;3.35;;;21.90;57.60;;;;;;6251802;28;20176;-80
2023/05/24 09:49:40;;;;;;;8.80;2.63;;;22.70;56.80;;;;;;6251174;28;20168;-81
2023/05/24 09:52:42;;;;;;;7.32;3.03;;;23.50;54.60;;;;;;6252935;28;20136;-81
2023/05/24 09:55:44;;;;;;;8.13;2.85;;;24.10;53.20;;;;;;6252411;28;20068;-80
2023/05/24 09:58:46;;;;;;;13.43;2.63;;;24.40;51.50;;;;;;6252079;28;20041;-81
2023/05/24 10:01:52;;;;;;;8.77;2.33;;;24.60;50.50;;;;;;6252412;28;20049;-81
2023/05/24 10:04:59;;;;;;;5.47;2.83;;;24.60;49.90;;;;;;6251256;28;20053;-81
2023/05/24 10:08:03;;;;;;;5.05;2.03;;;24.80;49.50;;;;;;6252119;28;20056;-80
2023/05/24 10:11:05;;;;;;;9.02;4.15;;;25.10;49.20;;;;;;6257959;28;20049;-79
2023/05/24 10:14:10;;;;;;;13.02;4.57;;;25.10;48.50;;;;;;6251927;28;20049;-81
2023/05/24 10:17:11;;;;;;;12.23;3.25;;;25.20;48.20;;;;;;6248492;28;20043;-81
2023/05/24 10:20:15;;;;;;;9.25;2.75;;;25.30;47.70;;;;;;6251820;28;20057;-78
2023/05/24 10:23:21;;;;;;;7.75;2.90;;;25.50;47.10;;;;;;6250224;28;20057;-77
2023/05/24 10:26:25;;;;;;;10.60;3.55;;;25.30;46.50;;;;;;6249850;28;20408;-80
2023/05/24 10:29:35;;;;;;;10.25;2.75;;;25.00;46.40;;;;;;6244973;28;20049;-81
2023/05/24 10:32:39;;;;;;;10.00;3.40;;;24.70;46.10;;;;;;6245016;28;20046;-77
2023/05/24 10:35:43;;;;;;;12.80;4.07;;;24.90;46.20;;;;;;6246174;28;20049;-77
2023/05/24 10:38:46;;;;;;;8.38;3.50;;;25.10;45.50;;;;;;6244581;28;20440;-80
2023/05/24 10:41:48;;;;;;;13.00;3.13;;;25.40;45.20;;;;;;6243897;28;20050;-79
2023/05/24 10:44:50;;;;;;;7.45;2.85;;;25.50;44.80;;;;;;6245598;28;20061;-81
2023/05/24 10:47:52;;;;;;;6.65;2.22;;;25.60;45.20;;;;;;6238480;28;20142;-80
2023/05/24 10:50:55;;;;;;;9.15;3.58;;;25.70;44.70;;;;;;6202967;28;20141;-75
2023/05/24 10:53:57;;;;;;;8.00;2.78;;;25.40;44.00;;;;;;6202346;28;20442;-77
2023/05/24 10:57:03;;;;;;;10.32;3.78;;;25.20;44.60;;;;;;6206976;28;20050;-80
2023/05/24 11:00:27;;;;;;;4.68;2.40;;;25.20;44.30;;;;;;6205454;28;20185;-79
2023/05/24 11:03:33;;;;;;;9.82;3.28;;;25.00;44.30;;;;;;6205419;28;20042;-78
2023/05/24 11:06:54;;;;;;;10.30;4.80;;;25.00;43.70;;;;;;6207358;28;20430;-78
2023/05/24 11:09:58;;;;;;;10.70;3.03;;;25.00;43.70;;;;;;6201959;28;20042;-77
2023/05/24 11:13:00;;;;;;;4.97;1.95;;;25.00;43.40;;;;;;6205780;28;20046;-79
2023/05/24 11:16:03;;;;;;;10.88;3.05;;;24.50;43.30;;;;;;6202850;28;20054;-79
2023/05/24 11:19:12;;;;;;;5.75;2.47;;;24.50;44.50;;;;;;6209008;28;20042;-79
2023/05/24 11:22:19;;;;;;;10.82;2.80;;;24.90;43.60;;;;;;6212579;28;20060;-80
2023/05/24 11:25:21;;;;;;;9.23;2.83;;;25.10;43.10;;;;;;6207357;28;20487;-77
2023/05/24 11:28:23;;;;;;;9.48;2.58;;;25.40;43.00;;;;;;6205635;28;20057;-78
2023/05/24 11:31:27;;;;;;;11.35;2.45;;;25.60;42.70;;;;;;6205744;28;20050;-81
2023/05/24 11:34:29;;;;;;;11.82;3.28;;;25.30;42.00;;;;;;6241731;28;20060;-81
2023/05/24 11:37:32;;;;;;;7.38;2.17;;;24.80;42.20;;;;;;6224035;28;20054;-80
2023/05/24 11:40:34;;;;;;;15.05;7.90;;;24.70;42.90;;;;;;6215103;28;20042;-77
2023/05/24 11:43:36;;;;;;;16.27;3.83;;;25.10;42.80;;;;;;6222970;28;20516;-78
2023/05/24 11:46:39;;;;;;;8.68;3.40;;;25.30;42.90;;;;;;6247648;28;20576;-80
2023/05/24 11:49:41;;;;;;;7.28;2.75;;;24.90;42.50;;;;;;6214144;28;20069;-80
2023/05/24 11:52:44;;;;;;;8.95;3.28;;;24.90;42.70;;;;;;6206813;28;20038;-80
2023/05/24 11:55:47;;;;;;;10.15;2.08;;;25.00;42.60;;;;;;6207935;28;20054;-79
2023/05/24 11:58:50;;;;;;;10.77;4.15;;;24.90;42.90;;;;;;6204402;28;20050;-78
2023/05/24 12:01:58;;;;;;;12.27;4.25;;;25.00;43.30;;;;;;6205080;28;23182;-80
2023/05/24 12:05:08;;;;;;;5.53;3.10;;;25.20;43.00;;;;;;6227239;28;20052;-81
2023/05/24 12:08:14;;;;;;;10.93;4.88;;;25.40;42.90;;;;;;6203598;28;20042;-80
2023/05/24 12:11:16;;;;;;;9.90;2.83;;;25.60;42.70;;;;;;6232773;28;20030;-77
2023/05/24 12:14:19;;;;;;;15.60;4.85;;;25.80;42.60;;;;;;6228550;28;20054;-77
2023/05/24 12:17:20;;;;;;;13.82;3.97;;;25.90;42.70;;;;;;6224654;28;20048;-81
2023/05/24 12:20:22;;;;;;;9.50;2.95;;;25.90;42.30;;;;;;6225190;28;20046;-79
2023/05/24 12:23:30;;;;;;;13.68;5.32;;;25.90;42.00;;;;;;6225412;28;20045;-78
2023/05/24 12:26:34;;;;;;;11.70;4.78;;;25.60;42.30;;;;;;6226493;28;20037;-78
2023/05/24 12:29:38;;;;;;;10.68;3.72;;;25.70;42.70;;;;;;6225910;28;20042;-78
2023/05/24 12:32:40;;;;;;;17.63;7.28;;;25.70;42.80;;;;;;6224473;28;20038;-77
2023/05/24 12:35:42;;;;;;;11.20;5.55;;;25.60;42.80;;;;;;6240250;28;20046;-78
2023/05/24 12:38:45;;;;;;;10.10;4.00;;;25.40;43.40;;;;;;6233043;28;20053;-81
2023/05/24 12:41:51;;;;;;;9.55;2.47;;;25.50;43.60;;;;;;6227974;28;20050;-80
2023/05/24 12:44:53;;;;;;;8.65;3.60;;;25.50;43.10;;;;;;6218684;28;20042;-79
2023/05/24 12:47:56;;;;;;;7.07;3.28;;;25.60;43.10;;;;;;6222031;28;20061;-80
2023/05/24 12:50:58;;;;;;;11.07;3.50;;;25.70;42.70;;;;;;6217624;28;20047;-81
2023/05/24 12:54:03;;;;;;;11.88;4.80;;;25.70;42.60;;;;;;6209642;28;20050;-78
2023/05/24 12:57:05;;;;;;;9.55;3.22;;;25.60;42.80;;;;;;6212021;28;20128;-78
2023/05/24 13:00:09;;;;;;;7.75;2.10;;;25.70;42.60;;;;;;6204983;28;20054;-79
2023/05/24 13:03:11;;;;;;;9.20;2.17;;;25.70;42.50;;;;;;6227041;28;20088;-80
2023/05/24 13:06:12;;;;;;;9.30;2.47;;;25.70;42.10;;;;;;6226699;28;20050;-81
2023/05/24 13:09:17;;;;;;;10.13;3.33;;;25.90;41.90;;;;;;6225878;28;20041;-81
2023/05/24 13:12:20;;;;;;;7.93;3.08;;;25.90;42.00;;;;;;6225442;28;20046;-81
2023/05/24 13:15:23;;;;;;;5.88;3.00;;;25.90;41.90;;;;;;6225725;28;20507;-80
2023/05/24 13:18:25;;;;;;;7.70;2.97;;;26.00;41.70;;;;;;6225089;28;20116;-81
2023/05/24 13:21:28;;;;;;;8.25;2.63;;;26.00;41.60;;;;;;6225879;28;20566;-81
2023/05/24 13:24:31;;;;;;;5.70;2.30;;;26.10;41.50;;;;;;6226015;28;20049;-81
2023/05/24 13:27:32;;;;;;;5.88;2.10;;;26.00;41.20;;;;;;6226784;28;20046;-80
2023/05/24 13:30:39;;;;;;;5.80;2.75;;;25.50;41.00;;;;;;6221915;28;20355;-82
2023/05/24 13:33:42;;;;;;;7.93;2.13;;;24.80;41.60;;;;;;6199095;28;20046;-76
2023/05/24 13:36:51;;;;;;;9.48;2.33;;;24.90;41.90;;;;;;6199492;28;20509;-78
2023/05/24 13:39:58;;;;;;;4.72;2.40;;;25.30;41.60;;;;;;6201309;28;20054;-79
2023/05/24 13:43:01;;;;;;;13.45;3.47;;;25.60;41.10;;;;;;6200928;28;20054;-79
2023/05/24 13:46:03;;;;;;;12.60;2.83;;;25.60;41.20;;;;;;6203375;28;20151;-80
2023/05/24 13:49:11;;;;;;;7.30;2.80;;;25.80;40.80;;;;;;6202264;28;20038;-81
2023/05/24 13:52:16;;;;;;;;;;;25.70;40.60;;;;;;6202210;28;20066;-83
2023/05/24 13:55:23;;;;;;;8.35;3.03;;;25.90;41.00;;;;;;6203215;28;19932;-81
2023/05/24 13:58:25;;;;;;;4.90;2.03;;;25.90;40.40;;;;;;6203240;28;20082;-79
2023/05/24 14:01:36;;;;;;;6.18;2.05;;;25.90;40.10;;;;;;6221533;28;20054;-80
2023/05/24 14:04:42;;;;;;;7.25;3.47;;;25.90;40.00;;;;;;6217401;28;20140;-79
2023/05/24 14:07:49;;;;;;;5.38;2.72;;;25.80;40.00;;;;;;6225547;28;20057;-80
2023/05/24 14:10:53;;;;;;;6.72;2.85;;;25.90;40.00;;;;;;6224588;28;20057;-81
2023/05/24 14:14:00;;;;;;;9.82;3.05;;;25.60;39.60;;;;;;6222406;28;20058;-78
2023/05/24 14:17:05;;;;;;;11.13;2.58;;;25.30;40.10;;;;;;6225775;28;20046;-79
2023/05/24 14:20:11;;;;;;;7.47;2.92;;;25.20;40.30;;;;;;6226655;28;20533;-79
2023/05/24 14:23:12;;;;;;;6.35;2.55;;;25.30;40.20;;;;;;6229171;28;20056;-79
2023/05/24 14:26:16;;;;;;;6.50;2.53;;;25.30;40.20;;;;;;6229252;28;20050;-79
2023/05/24 14:29:21;;;;;;;17.17;2.75;;;25.40;40.20;;;;;;6229426;28;20046;-81
2023/05/24 14:32:23;;;;;;;9.10;2.45;;;25.50;40.20;;;;;;6200672;28;20046;-81
2023/05/24 14:35:25;;;;;;;6.72;2.75;;;25.40;40.10;;;;;;6203741;28;20054;-77
2023/05/24 14:38:29;;;;;;;5.93;2.78;;;25.40;39.80;;;;;;6202159;28;20421;-81
2023/05/24 14:41:32;;;;;;;6.35;2.45;;;25.40;39.70;;;;;;6202182;28;20058;-81
2023/05/24 14:44:34;;;;;;;4.90;3.40;;;25.10;39.60;;;;;;6211542;28;20144;-80
2023/05/24 14:47:39;;;;;;;6.50;2.35;;;25.00;40.00;;;;;;6227298;28;20053;-80
2023/05/24 14:50:42;;;;;;;6.80;2.20;;;25.00;39.50;;;;;;6221060;28;20046;-78
2023/05/24 14:53:44;;;;;;;8.82;2.42;;;25.00;39.60;;;;;;6207869;28;20056;-81
2023/05/24 14:56:47;;;;;;;8.57;2.95;;;25.00;39.50;;;;;;6207379;28;20141;-78
2023/05/24 14:59:51;;;;;;;8.82;2.70;;;24.90;39.30;;;;;;6208255;28;20501;-79
2023/05/24 15:02:53;;;;;;;8.10;2.60;;;24.80;39.60;;;;;;6228964;28;20053;-81
2023/05/24 15:05:55;;;;;;;8.45;2.28;;;24.90;39.50;;;;;;6227417;28;20049;-82
2023/05/24 15:09:00;;;;;;;6.47;3.17;;;25.00;39.40;;;;;;6219669;28;20045;-81
2023/05/24 15:12:04;;;;;;;9.40;2.70;;;25.00;39.10;;;;;;6227710;28;20046;-78
2023/05/24 15:15:06;;;;;;;8.75;3.40;;;25.00;39.10;;;;;;6229098;28;20571;-81
2023/05/24 15:18:08;;;;;;;9.15;2.95;;;25.00;38.90;;;;;;6227799;28;20049;-80
2023/05/24 15:21:10;;;;;;;8.32;3.05;;;24.80;39.30;;;;;;6216396;28;20133;-79
2023/05/24 15:24:13;;;;;;;4.85;2.00;;;24.50;39.30;;;;;;6217962;28;20049;-81
2023/05/24 15:27:17;;;;;;;10.07;4.10;;;24.40;39.40;;;;;;6228422;28;20053;-80
2023/05/24 15:30:22;;;;;;;8.15;3.05;;;24.30;39.60;;;;;;6228642;28;20056;-81
2023/05/24 15:33:25;;;;;;;8.48;3.13;;;24.50;39.70;;;;;;6204525;28;20053;-78
2023/05/24 15:36:27;;;;;;;10.38;2.67;;;24.50;39.60;;;;;;6213843;28;20050;-80
2023/05/24 15:39:28;;;;;;;5.88;2.90;;;24.60;39.50;;;;;;6222252;28;20077;-79
2023/05/24 15:42:31;;;;;;;8.55;3.13;;;24.70;39.30;;;;;;6208528;28;20057;-79
2023/05/24 15:45:33;;;;;;;7.38;2.50;;;24.40;39.90;;;;;;6200154;28;20050;-80
2023/05/24 15:48:37;;;;;;;4.57;2.97;;;24.20;39.90;;;;;;6200354;28;20047;-81
2023/05/24 15:51:40;;;;;;;10.18;2.83;;;24.20;39.90;;;;;;6205943;28;20128;-80